createdAt,value
2022-12-03T00:01:26.920Z,23.25
2022-12-03T00:03:58.512Z,22.00
2022-12-03T00:06:34.353Z,22.23
2022-12-03T00:09:03.629Z,21.73
2022-12-03T00:11:39.171Z,25.87
2022-12-03T00:14:07.989Z,24.33
2022-12-03T00:16:39.619Z,25.95
2022-12-03T00:19:11.131Z,22.45
2022-12-03T00:21:45.697Z,25.20
2022-12-03T00:24:14.581Z,24.50
2022-12-03T00:26:43.274Z,24.17
2022-12-03T00:29:18.438Z,23.67
2022-12-03T00:32:43.314Z,25.75
2022-12-03T00:35:17.944Z,26.33
2022-12-03T00:37:46.731Z,29.77
2022-12-03T00:40:15.756Z,24.50
2022-12-03T00:42:50.352Z,28.05
2022-12-03T00:45:26.827Z,28.70
2022-12-03T00:47:55.290Z,32.08
2022-12-03T00:50:25.028Z,29.93
2022-12-03T00:52:53.633Z,26.65
2022-12-03T00:55:22.285Z,28.45
2022-12-03T00:57:50.825Z,24.08
2022-12-03T01:00:24.678Z,26.88
2022-12-03T01:02:54.198Z,27.70
2022-12-03T01:05:24.902Z,26.38
2022-12-03T01:07:53.971Z,25.70
2022-12-03T01:10:22.681Z,29.67
2022-12-03T01:12:51.281Z,31.15
2022-12-03T01:15:20.062Z,32.43
2022-12-03T01:17:50.025Z,28.52
2022-12-03T01:20:20.357Z,26.65
2022-12-03T01:22:57.388Z,30.88
2022-12-03T01:25:27.710Z,29.45
2022-12-03T01:28:20.960Z,31.33
2022-12-03T01:31:13.575Z,32.10
2022-12-03T01:33:44.157Z,32.40
2022-12-03T01:36:12.833Z,34.42
2022-12-03T01:38:42.635Z,32.25
2022-12-03T01:41:13.005Z,30.53
2022-12-03T01:43:41.672Z,30.17
2022-12-03T01:46:11.809Z,33.08
2022-12-03T01:48:40.566Z,32.55
2022-12-03T01:51:10.287Z,30.60
2022-12-03T01:53:39.269Z,31.77
2022-12-03T01:56:15.648Z,32.42
2022-12-03T01:58:45.139Z,30.95
2022-12-03T02:01:20.058Z,28.50
2022-12-03T02:03:48.901Z,27.95
2022-12-03T02:06:24.913Z,34.37
2022-12-03T02:08:59.675Z,35.50
2022-12-03T02:11:32.015Z,30.60
2022-12-03T02:14:05.147Z,35.63
2022-12-03T02:16:33.670Z,34.65
2022-12-03T02:19:02.274Z,34.67
2022-12-03T02:21:38.264Z,34.95
2022-12-03T02:24:13.377Z,34.05
2022-12-03T02:26:43.416Z,36.40
2022-12-03T02:29:12.206Z,35.88
2022-12-03T02:31:40.892Z,33.43
2022-12-03T02:34:11.690Z,37.13
2022-12-03T02:36:40.999Z,30.70
2022-12-03T02:39:10.032Z,38.85
2022-12-03T02:41:56.406Z,37.58
2022-12-03T02:44:28.486Z,33.47
2022-12-03T02:46:57.104Z,39.35
2022-12-03T02:49:25.826Z,37.08
2022-12-03T02:51:56.145Z,41.50
2022-12-03T02:54:26.672Z,35.90
2022-12-03T02:56:55.262Z,37.33
2022-12-03T02:59:24.772Z,42.25
2022-12-03T03:01:54.693Z,39.83
2022-12-03T03:04:25.054Z,42.45
2022-12-03T03:07:38.600Z,41.33
2022-12-03T03:10:12.192Z,36.37
2022-12-03T03:12:40.931Z,36.10
2022-12-03T03:15:15.263Z,38.80
2022-12-03T03:17:45.090Z,33.10
2022-12-03T03:20:15.111Z,40.58
2022-12-03T03:22:44.733Z,38.07
2022-12-03T03:25:18.862Z,35.83
2022-12-03T03:27:47.493Z,44.55
2022-12-03T03:30:16.991Z,39.33
2022-12-03T03:32:46.604Z,39.10
2022-12-03T03:35:18.061Z,40.10
2022-12-03T03:37:49.913Z,36.83
2022-12-03T03:40:18.447Z,36.13
2022-12-03T03:42:47.490Z,38.60
2022-12-03T03:45:24.002Z,39.17
2022-12-03T03:48:01.646Z,40.47
2022-12-03T03:50:31.763Z,42.25
2022-12-03T03:53:01.350Z,36.75
2022-12-03T03:55:33.111Z,40.58
2022-12-03T03:58:04.695Z,36.22
2022-12-03T04:00:36.066Z,35.33
2022-12-03T04:03:07.034Z,34.33
2022-12-03T04:05:38.239Z,32.28
2022-12-03T04:08:07.023Z,31.05
2022-12-03T04:10:53.014Z,38.75
2022-12-03T04:13:21.514Z,37.27
2022-12-03T04:15:50.076Z,35.40
2022-12-03T04:18:37.140Z,35.30
2022-12-03T04:21:19.590Z,35.83
2022-12-03T04:23:48.079Z,38.78
2022-12-03T04:26:33.891Z,32.50
2022-12-03T04:29:02.336Z,31.58
2022-12-03T04:31:48.701Z,32.10
2022-12-03T04:34:35.750Z,29.15
2022-12-03T04:37:04.551Z,32.65
2022-12-03T04:39:32.785Z,28.70
2022-12-03T04:42:01.406Z,31.60
2022-12-03T04:44:36.989Z,30.60
2022-12-03T04:47:08.117Z,35.05
2022-12-03T04:49:39.901Z,31.27
2022-12-03T04:52:09.437Z,31.63
2022-12-03T04:54:38.277Z,39.80
2022-12-03T04:57:06.987Z,31.35
2022-12-03T04:59:35.974Z,33.60
2022-12-03T05:02:04.659Z,27.92
2022-12-03T05:04:34.577Z,32.80
2022-12-03T05:07:04.181Z,33.03
2022-12-03T05:09:34.209Z,33.20
2022-12-03T05:12:03.886Z,38.13
2022-12-03T05:14:32.455Z,38.28
2022-12-03T05:17:01.053Z,38.17
2022-12-03T05:19:43.473Z,42.35
2022-12-03T05:22:12.978Z,31.45
2022-12-03T05:24:41.568Z,26.70
2022-12-03T05:27:10.454Z,27.95
2022-12-03T05:29:38.985Z,26.00
2022-12-03T05:32:07.532Z,25.45
2022-12-03T05:34:35.977Z,25.08
2022-12-03T05:37:04.733Z,25.27
2022-12-03T05:39:38.336Z,29.92
2022-12-03T05:42:24.791Z,25.97
2022-12-03T05:44:53.519Z,25.38
2022-12-03T05:47:22.101Z,29.27
2022-12-03T05:49:50.544Z,27.27
2022-12-03T05:52:19.028Z,27.25
2022-12-03T05:54:48.653Z,30.90
2022-12-03T05:57:17.179Z,28.55
2022-12-03T05:59:45.768Z,30.40
2022-12-03T06:02:15.076Z,31.90
2022-12-03T06:04:43.689Z,25.90
2022-12-03T06:07:14.199Z,26.47
2022-12-03T06:09:43.108Z,29.80
2022-12-03T06:12:12.722Z,25.42
2022-12-03T06:14:41.256Z,24.25
2022-12-03T06:17:09.721Z,24.10
2022-12-03T06:19:38.242Z,25.40
2022-12-03T06:22:06.708Z,27.73
2022-12-03T06:24:35.451Z,23.70
2022-12-03T06:27:05.351Z,24.20
2022-12-03T06:29:35.311Z,26.10
2022-12-03T06:32:06.278Z,26.00
2022-12-03T06:34:34.848Z,25.73
2022-12-03T06:37:03.388Z,23.95
2022-12-03T06:39:31.797Z,26.30
2022-12-03T06:42:03.286Z,22.58
2022-12-03T06:44:31.653Z,28.87
2022-12-03T06:47:01.188Z,24.95
2022-12-03T06:49:29.620Z,29.30
2022-12-03T06:51:58.115Z,25.05
2022-12-03T06:54:26.532Z,28.30
2022-12-03T06:56:55.017Z,28.07
2022-12-03T06:59:23.509Z,24.25
2022-12-03T07:01:55.022Z,32.15
2022-12-03T07:04:24.555Z,23.05
2022-12-03T07:06:53.355Z,30.05
2022-12-03T07:09:21.964Z,22.97
2022-12-03T07:11:50.392Z,23.70
2022-12-03T07:14:18.505Z,25.40
2022-12-03T07:16:47.583Z,21.05
2022-12-03T07:19:16.071Z,22.38
2022-12-03T07:21:48.096Z,23.67
2022-12-03T07:24:16.590Z,20.60
2022-12-03T07:26:45.101Z,20.02
2022-12-03T07:29:14.186Z,21.88
2022-12-03T07:31:44.810Z,21.85
2022-12-03T07:34:15.044Z,26.43
2022-12-03T07:36:43.592Z,23.52
2022-12-03T07:39:13.414Z,23.42
2022-12-03T07:41:41.924Z,23.73
2022-12-03T07:44:14.185Z,20.95
2022-12-03T07:46:43.164Z,20.97
2022-12-03T07:49:12.363Z,24.73
2022-12-03T07:51:41.092Z,20.25
2022-12-03T07:54:09.562Z,24.20
2022-12-03T07:56:39.275Z,26.23
2022-12-03T07:59:07.844Z,21.07
2022-12-03T08:01:36.121Z,23.52
2022-12-03T08:04:04.832Z,21.27
2022-12-03T08:06:33.311Z,19.38
2022-12-03T08:09:01.786Z,23.42
2022-12-03T08:11:30.367Z,20.67
2022-12-03T08:14:00.488Z,23.45
2022-12-03T08:16:28.959Z,23.02
2022-12-03T08:18:57.976Z,23.42
2022-12-03T08:21:26.545Z,26.90
2022-12-03T08:23:55.168Z,24.70
2022-12-03T08:26:25.269Z,20.48
2022-12-03T08:28:54.039Z,22.55
2022-12-03T08:31:32.470Z,25.08
2022-12-03T08:34:17.847Z,29.55
2022-12-03T08:36:52.208Z,24.00
2022-12-03T08:39:33.176Z,27.40
2022-12-03T08:42:27.965Z,27.15
2022-12-03T08:44:56.627Z,23.75
2022-12-03T08:47:26.541Z,26.73
2022-12-03T08:49:57.930Z,25.70
2022-12-03T08:52:32.700Z,25.80
2022-12-03T08:56:06.652Z,28.42
2022-12-03T08:58:41.261Z,22.98
2022-12-03T09:01:42.838Z,22.85
2022-12-03T09:04:29.699Z,20.70
2022-12-03T09:06:58.809Z,19.83
2022-12-03T09:09:27.505Z,17.50
2022-12-03T09:11:56.059Z,16.02
2022-12-03T09:14:24.633Z,17.95
2022-12-03T09:16:56.097Z,16.40
2022-12-03T09:19:27.499Z,17.17
2022-12-03T09:21:56.360Z,15.23
2022-12-03T09:24:25.005Z,19.75
2022-12-03T09:26:53.936Z,16.15
2022-12-03T09:29:22.454Z,18.27
2022-12-03T09:31:51.145Z,19.30
2022-12-03T09:34:19.746Z,17.27
2022-12-03T09:36:49.314Z,20.02
2022-12-03T09:39:17.985Z,18.48
2022-12-03T09:41:46.671Z,21.23
2022-12-03T09:44:17.803Z,21.05
2022-12-03T09:46:47.530Z,18.65
2022-12-03T09:49:18.801Z,19.73
2022-12-03T09:51:49.002Z,18.92
2022-12-03T09:54:24.141Z,24.17
2022-12-03T09:56:53.763Z,20.27
2022-12-03T09:59:22.632Z,20.20
2022-12-03T10:01:51.475Z,24.88
2022-12-03T10:04:20.841Z,23.23
2022-12-03T10:06:53.835Z,23.77
2022-12-03T10:09:25.701Z,25.77
2022-12-03T10:12:26.034Z,28.60
2022-12-03T10:14:56.325Z,27.55
2022-12-03T10:17:29.535Z,27.88
2022-12-03T10:19:58.213Z,25.60
2022-12-03T10:22:28.040Z,26.75
2022-12-03T10:25:10.531Z,26.85
2022-12-03T10:27:42.913Z,25.83
2022-12-03T10:30:17.518Z,26.65
2022-12-03T10:32:47.870Z,27.77
2022-12-03T10:35:18.496Z,22.55
2022-12-03T10:38:19.823Z,30.63
2022-12-03T10:40:50.764Z,27.70
2022-12-03T10:43:24.105Z,26.05
2022-12-03T10:49:12.510Z,27.40
2022-12-03T10:51:42.860Z,29.85
2022-12-03T10:54:26.808Z,29.33
2022-12-03T10:56:55.403Z,28.48
2022-12-03T10:59:28.960Z,27.50
2022-12-03T11:01:57.899Z,30.27
2022-12-03T11:04:34.747Z,27.77
2022-12-03T11:07:17.828Z,27.95
2022-12-03T11:09:49.865Z,27.17
2022-12-03T11:12:21.951Z,30.50
2022-12-03T11:15:08.248Z,30.98
2022-12-03T11:17:46.841Z,26.42
2022-12-03T11:20:48.476Z,29.90
2022-12-03T11:23:17.059Z,32.60
2022-12-03T11:25:51.817Z,30.83
2022-12-03T11:29:01.556Z,30.88
2022-12-03T11:31:40.753Z,35.20
2022-12-03T11:34:47.780Z,33.35
2022-12-03T11:37:29.522Z,31.00
2022-12-03T11:40:27.090Z,28.13
2022-12-03T11:42:59.210Z,27.42
2022-12-03T11:45:36.371Z,27.02
2022-12-03T11:48:17.035Z,32.35
2022-12-03T11:50:54.455Z,29.42
2022-12-03T11:53:27.665Z,30.03
2022-12-03T11:56:08.911Z,27.17
2022-12-03T11:58:40.961Z,31.92
2022-12-03T12:01:10.296Z,32.88
2022-12-03T12:03:55.430Z,32.88
2022-12-03T12:06:24.199Z,29.83
2022-12-03T12:09:04.025Z,31.67
2022-12-03T12:11:34.330Z,28.15
2022-12-03T12:14:06.835Z,28.98
2022-12-03T12:16:50.607Z,31.42
2022-12-03T12:19:39.313Z,34.00
2022-12-03T12:22:30.085Z,32.95
2022-12-03T12:24:59.881Z,33.13
2022-12-03T12:27:34.405Z,30.73
2022-12-03T12:30:09.407Z,29.10
2022-12-03T12:32:50.117Z,29.67
2022-12-03T12:35:23.291Z,28.80
2022-12-03T12:38:00.168Z,26.95
2022-12-03T12:40:32.040Z,26.70
2022-12-03T12:43:09.956Z,29.02
2022-12-03T12:45:43.841Z,23.80
2022-12-03T12:48:20.552Z,30.08
2022-12-03T12:50:51.907Z,29.48
2022-12-03T12:53:24.918Z,29.60
2022-12-03T12:55:57.587Z,26.90
2022-12-03T12:58:27.029Z,26.03
2022-12-03T13:00:59.712Z,29.48
2022-12-03T13:03:30.956Z,26.63
2022-12-03T13:05:59.644Z,27.25
2022-12-03T13:08:31.124Z,28.70
2022-12-03T13:11:01.453Z,25.67
2022-12-03T13:13:44.280Z,28.90
2022-12-03T13:16:20.656Z,29.20
2022-12-03T13:18:50.955Z,23.58
2022-12-03T13:21:26.324Z,32.17
2022-12-03T13:23:57.696Z,23.40
2022-12-03T13:26:36.454Z,26.50
2022-12-03T13:29:15.733Z,24.25
2022-12-03T13:31:55.743Z,24.15
2022-12-03T13:34:42.922Z,25.02
2022-12-03T13:37:20.982Z,25.80
2022-12-03T13:39:50.946Z,23.40
2022-12-03T13:42:42.276Z,21.58
2022-12-03T13:45:33.001Z,26.55
2022-12-03T13:48:04.785Z,24.30
2022-12-03T13:50:39.787Z,24.93
2022-12-03T13:53:20.069Z,24.35
2022-12-03T13:55:52.277Z,24.08
2022-12-03T13:58:20.855Z,25.70
2022-12-03T14:00:50.021Z,25.63
2022-12-03T14:03:19.964Z,23.77
2022-12-03T14:05:50.936Z,25.23
2022-12-03T14:08:19.936Z,24.83
2022-12-03T14:10:48.794Z,26.60
2022-12-03T14:13:16.728Z,25.25
2022-12-03T14:15:45.411Z,23.93
2022-12-03T14:18:19.369Z,29.65
2022-12-03T14:20:48.348Z,25.77
2022-12-03T14:23:17.614Z,28.77
2022-12-03T14:25:46.309Z,28.73
2022-12-03T14:28:14.873Z,28.50
2022-12-03T14:30:43.364Z,25.20
2022-12-03T14:33:11.851Z,27.95
2022-12-03T14:35:41.519Z,26.83
2022-12-03T14:38:09.916Z,27.98
2022-12-03T14:40:38.654Z,30.13
2022-12-03T14:43:07.141Z,28.90
2022-12-03T14:45:35.688Z,30.98
2022-12-03T14:48:07.985Z,26.70
2022-12-03T14:50:36.510Z,29.42
2022-12-03T14:53:06.186Z,30.50
2022-12-03T14:55:34.901Z,30.08
2022-12-03T21:22:50.965Z,31.20
2022-12-03T21:25:24.178Z,30.08
2022-12-03T21:27:57.773Z,36.80
2022-12-03T21:30:42.415Z,32.83
2022-12-03T21:38:40.485Z,32.75
2022-12-03T21:49:26.616Z,30.47
2022-12-03T21:52:20.279Z,26.10
2022-12-03T21:55:03.311Z,46.28
2022-12-03T21:57:36.419Z,34.85
2022-12-03T22:00:13.354Z,25.77
2022-12-03T22:02:49.947Z,26.63
2022-12-03T22:05:23.461Z,26.98
2022-12-03T22:07:53.020Z,28.42
2022-12-03T22:10:25.812Z,32.47
2022-12-03T22:13:16.411Z,23.92
2022-12-03T22:15:51.358Z,28.00
2022-12-03T22:19:04.470Z,31.67
2022-12-03T22:22:37.383Z,25.45
2022-12-03T22:24:51.921Z,28.50
2022-12-03T22:27:23.002Z,34.97
2022-12-03T22:30:04.779Z,33.20
2022-12-03T22:32:34.902Z,27.55
2022-12-03T22:37:43.165Z,28.88
2022-12-03T22:40:18.124Z,28.50
2022-12-03T22:42:55.117Z,27.93
2022-12-03T22:45:27.961Z,25.83
2022-12-03T22:47:57.228Z,25.10
2022-12-03T22:50:26.905Z,29.15
2022-12-03T23:43:34.875Z,26.40
2022-12-03T23:46:19.490Z,26.27
2022-12-03T23:49:07.552Z,30.30
